sensor_id;sensor_type;location;lat;lon;timestamp;P1;durP1;ratioP1;P2;durP2;ratioP2
68886;SDS011;55925;51.764;6.402;2023-03-14T00:01:22;5.38;;;2.13;;
68886;SDS011;55925;51.764;6.402;2023-03-14T00:03:48;8.90;;;2.25;;
68886;SDS011;55925;51.764;6.402;2023-03-14T00:06:15;10.18;;;2.25;;
68886;SDS011;55925;51.764;6.402;2023-03-14T00:08:42;8.63;;;1.95;;
68886;SDS011;55925;51.764;6.402;2023-03-14T00:11:09;11.18;;;2.10;;
68886;SDS011;55925;51.764;6.402;2023-03-14T00:13:35;7.60;;;2.40;;
68886;SDS011;55925;51.764;6.402;2023-03-14T00:16:06;9.98;;;2.33;;
68886;SDS011;55925;51.764;6.402;2023-03-14T00:18:32;20.85;;;2.38;;
68886;SDS011;55925;51.764;6.402;2023-03-14T00:20:59;8.40;;;2.38;;
68886;SDS011;55925;51.764;6.402;2023-03-14T00:23:26;6.55;;;2.00;;
68886;SDS011;55925;51.764;6.402;2023-03-14T00:25:53;12.05;;;2.92;;
68886;SDS011;55925;51.764;6.402;2023-03-14T00:28:18;6.30;;;2.15;;
68886;SDS011;55925;51.764;6.402;2023-03-14T00:30:44;5.70;;;1.77;;
68886;SDS011;55925;51.764;6.402;2023-03-14T00:33:10;6.30;;;1.85;;
68886;SDS011;55925;51.764;6.402;2023-03-14T00:35:36;7.68;;;2.13;;
68886;SDS011;55925;51.764;6.402;2023-03-14T00:38:02;8.85;;;2.03;;
68886;SDS011;55925;51.764;6.402;2023-03-14T00:40:28;7.20;;;2.10;;
68886;SDS011;55925;51.764;6.402;2023-03-14T00:42:54;9.85;;;1.92;;
68886;SDS011;55925;51.764;6.402;2023-03-14T00:45:20;6.93;;;2.22;;
68886;SDS011;55925;51.764;6.402;2023-03-14T00:47:46;8.73;;;2.10;;
68886;SDS011;55925;51.764;6.402;2023-03-14T00:50:12;8.18;;;2.33;;
68886;SDS011;55925;51.764;6.402;2023-03-14T00:52:38;6.35;;;2.13;;
68886;SDS011;55925;51.764;6.402;2023-03-14T00:55:04;6.22;;;1.60;;
68886;SDS011;55925;51.764;6.402;2023-03-14T00:57:31;7.03;;;1.73;;
68886;SDS011;55925;51.764;6.402;2023-03-14T00:59:56;5.18;;;1.70;;
68886;SDS011;55925;51.764;6.402;2023-03-14T01:02:22;7.32;;;2.00;;
68886;SDS011;55925;51.764;6.402;2023-03-14T01:04:49;5.88;;;1.48;;
68886;SDS011;55925;51.764;6.402;2023-03-14T01:07:15;4.95;;;1.80;;
68886;SDS011;55925;51.764;6.402;2023-03-14T01:09:41;7.43;;;1.73;;
68886;SDS011;55925;51.764;6.402;2023-03-14T01:12:07;7.65;;;1.50;;
68886;SDS011;55925;51.764;6.402;2023-03-14T01:14:33;6.45;;;1.67;;
68886;SDS011;55925;51.764;6.402;2023-03-14T01:17:00;7.75;;;1.63;;
68886;SDS011;55925;51.764;6.402;2023-03-14T01:19:27;5.57;;;1.52;;
68886;SDS011;55925;51.764;6.402;2023-03-14T01:21:53;7.68;;;2.00;;
68886;SDS011;55925;51.764;6.402;2023-03-14T01:24:19;8.10;;;1.80;;
68886;SDS011;55925;51.764;6.402;2023-03-14T01:26:45;4.95;;;1.90;;
68886;SDS011;55925;51.764;6.402;2023-03-14T01:29:11;5.25;;;1.30;;
68886;SDS011;55925;51.764;6.402;2023-03-14T01:31:38;7.35;;;1.52;;
68886;SDS011;55925;51.764;6.402;2023-03-14T01:34:04;8.27;;;1.52;;
68886;SDS011;55925;51.764;6.402;2023-03-14T01:36:30;7.05;;;1.75;;
68886;SDS011;55925;51.764;6.402;2023-03-14T01:38:56;5.68;;;1.25;;
68886;SDS011;55925;51.764;6.402;2023-03-14T01:41:23;4.75;;;1.33;;
68886;SDS011;55925;51.764;6.402;2023-03-14T01:43:50;7.80;;;1.45;;
68886;SDS011;55925;51.764;6.402;2023-03-14T01:51:44;4.32;;;1.15;;
68886;SDS011;55925;51.764;6.402;2023-03-14T01:54:16;7.60;;;1.85;;
68886;SDS011;55925;51.764;6.402;2023-03-14T01:56:46;7.68;;;1.42;;
68886;SDS011;55925;51.764;6.402;2023-03-14T01:59:14;9.38;;;1.60;;
68886;SDS011;55925;51.764;6.402;2023-03-14T02:01:41;5.38;;;1.38;;
68886;SDS011;55925;51.764;6.402;2023-03-14T02:04:07;6.95;;;1.48;;
68886;SDS011;55925;51.764;6.402;2023-03-14T02:06:35;6.88;;;1.40;;
68886;SDS011;55925;51.764;6.402;2023-03-14T02:09:03;4.93;;;1.13;;
68886;SDS011;55925;51.764;6.402;2023-03-14T02:11:29;7.22;;;1.52;;
68886;SDS011;55925;51.764;6.402;2023-03-14T02:13:56;6.43;;;1.27;;
68886;SDS011;55925;51.764;6.402;2023-03-14T02:16:24;6.53;;;1.67;;
68886;SDS011;55925;51.764;6.402;2023-03-14T02:18:50;7.88;;;1.55;;
68886;SDS011;55925;51.764;6.402;2023-03-14T02:21:38;6.75;;;1.23;;
68886;SDS011;55925;51.764;6.402;2023-03-14T02:29:00;3.72;;;1.13;;
68886;SDS011;55925;51.764;6.402;2023-03-14T02:31:26;5.88;;;1.20;;
68886;SDS011;55925;51.764;6.402;2023-03-14T02:33:52;4.22;;;1.20;;
68886;SDS011;55925;51.764;6.402;2023-03-14T02:36:18;5.00;;;1.40;;
68886;SDS011;55925;51.764;6.402;2023-03-14T02:41:23;7.07;;;1.70;;
68886;SDS011;55925;51.764;6.402;2023-03-14T02:43:49;4.97;;;1.48;;
68886;SDS011;55925;51.764;6.402;2023-03-14T02:46:19;5.75;;;1.38;;
68886;SDS011;55925;51.764;6.402;2023-03-14T02:48:50;6.53;;;1.73;;
68886;SDS011;55925;51.764;6.402;2023-03-14T02:51:17;6.22;;;1.60;;
68886;SDS011;55925;51.764;6.402;2023-03-14T02:53:43;10.15;;;1.88;;
68886;SDS011;55925;51.764;6.402;2023-03-14T02:56:09;7.30;;;1.42;;
68886;SDS011;55925;51.764;6.402;2023-03-14T02:58:36;6.47;;;1.70;;
68886;SDS011;55925;51.764;6.402;2023-03-14T03:01:02;6.88;;;1.48;;
68886;SDS011;55925;51.764;6.402;2023-03-14T03:03:28;3.72;;;1.42;;
68886;SDS011;55925;51.764;6.402;2023-03-14T03:05:55;5.93;;;1.70;;
68886;SDS011;55925;51.764;6.402;2023-03-14T03:08:22;7.80;;;1.65;;
68886;SDS011;55925;51.764;6.402;2023-03-14T03:10:48;5.40;;;1.52;;
68886;SDS011;55925;51.764;6.402;2023-03-14T03:13:15;7.35;;;2.05;;
68886;SDS011;55925;51.764;6.402;2023-03-14T03:15:41;7.10;;;1.73;;
68886;SDS011;55925;51.764;6.402;2023-03-14T03:18:07;7.80;;;1.45;;
68886;SDS011;55925;51.764;6.402;2023-03-14T03:20:33;6.55;;;1.70;;
68886;SDS011;55925;51.764;6.402;2023-03-14T03:22:59;8.50;;;2.03;;
68886;SDS011;55925;51.764;6.402;2023-03-14T03:25:25;9.35;;;1.50;;
68886;SDS011;55925;51.764;6.402;2023-03-14T03:27:51;6.95;;;1.75;;
68886;SDS011;55925;51.764;6.402;2023-03-14T03:30:18;5.35;;;1.90;;
68886;SDS011;55925;51.764;6.402;2023-03-14T03:32:44;6.05;;;1.45;;
68886;SDS011;55925;51.764;6.402;2023-03-14T03:35:10;4.72;;;1.40;;
68886;SDS011;55925;51.764;6.402;2023-03-14T03:37:36;7.18;;;1.65;;
68886;SDS011;55925;51.764;6.402;2023-03-14T03:40:02;7.20;;;2.13;;
68886;SDS011;55925;51.764;6.402;2023-03-14T03:42:32;7.20;;;1.50;;
68886;SDS011;55925;51.764;6.402;2023-03-14T03:44:58;7.22;;;2.22;;
68886;SDS011;55925;51.764;6.402;2023-03-14T03:47:25;7.43;;;2.13;;
68886;SDS011;55925;51.764;6.402;2023-03-14T03:49:50;5.05;;;1.40;;
68886;SDS011;55925;51.764;6.402;2023-03-14T03:52:16;5.30;;;2.00;;
68886;SDS011;55925;51.764;6.402;2023-03-14T03:54:43;7.90;;;1.83;;
68886;SDS011;55925;51.764;6.402;2023-03-14T03:57:09;5.63;;;1.60;;
68886;SDS011;55925;51.764;6.402;2023-03-14T03:59:35;5.43;;;1.65;;
68886;SDS011;55925;51.764;6.402;2023-03-14T04:02:01;5.88;;;1.48;;
68886;SDS011;55925;51.764;6.402;2023-03-14T04:04:27;6.80;;;1.42;;
68886;SDS011;55925;51.764;6.402;2023-03-14T04:06:53;6.13;;;1.50;;
68886;SDS011;55925;51.764;6.402;2023-03-14T04:09:19;6.70;;;1.75;;
68886;SDS011;55925;51.764;6.402;2023-03-14T04:11:45;10.45;;;1.98;;
68886;SDS011;55925;51.764;6.402;2023-03-14T04:14:11;6.95;;;1.70;;
68886;SDS011;55925;51.764;6.402;2023-03-14T04:16:37;8.35;;;1.60;;
68886;SDS011;55925;51.764;6.402;2023-03-14T04:19:03;6.45;;;1.50;;
68886;SDS011;55925;51.764;6.402;2023-03-14T04:21:29;7.22;;;1.63;;
68886;SDS011;55925;51.764;6.402;2023-03-14T04:23:55;7.32;;;1.50;;
68886;SDS011;55925;51.764;6.402;2023-03-14T04:26:21;6.45;;;1.67;;
68886;SDS011;55925;51.764;6.402;2023-03-14T04:28:47;8.13;;;1.52;;
68886;SDS011;55925;51.764;6.402;2023-03-14T04:31:20;9.27;;;1.88;;
68886;SDS011;55925;51.764;6.402;2023-03-14T04:33:46;7.55;;;1.55;;
68886;SDS011;55925;51.764;6.402;2023-03-14T04:36:12;6.85;;;2.00;;
68886;SDS011;55925;51.764;6.402;2023-03-14T04:38:38;8.20;;;1.55;;
68886;SDS011;55925;51.764;6.402;2023-03-14T04:41:04;8.48;;;1.30;;
68886;SDS011;55925;51.764;6.402;2023-03-14T04:43:31;10.77;;;1.48;;
68886;SDS011;55925;51.764;6.402;2023-03-14T04:45:57;6.80;;;1.33;;
68886;SDS011;55925;51.764;6.402;2023-03-14T04:48:24;3.47;;;1.15;;
68886;SDS011;55925;51.764;6.402;2023-03-14T04:50:50;4.72;;;1.55;;
68886;SDS011;55925;51.764;6.402;2023-03-14T04:53:16;7.75;;;1.75;;
68886;SDS011;55925;51.764;6.402;2023-03-14T04:55:46;4.90;;;1.13;;
68886;SDS011;55925;51.764;6.402;2023-03-14T04:58:12;4.75;;;1.58;;
68886;SDS011;55925;51.764;6.402;2023-03-14T05:00:38;6.93;;;1.55;;
68886;SDS011;55925;51.764;6.402;2023-03-14T05:03:04;6.18;;;1.13;;
68886;SDS011;55925;51.764;6.402;2023-03-14T05:05:30;10.07;;;1.77;;
68886;SDS011;55925;51.764;6.402;2023-03-14T05:07:56;6.57;;;1.40;;
68886;SDS011;55925;51.764;6.402;2023-03-14T05:10:22;8.40;;;1.35;;
68886;SDS011;55925;51.764;6.402;2023-03-14T05:12:48;5.82;;;1.33;;
68886;SDS011;55925;51.764;6.402;2023-03-14T05:15:14;5.82;;;1.20;;
68886;SDS011;55925;51.764;6.402;2023-03-14T05:17:40;5.00;;;1.27;;
68886;SDS011;55925;51.764;6.402;2023-03-14T05:20:07;6.32;;;1.55;;
68886;SDS011;55925;51.764;6.402;2023-03-14T05:22:39;5.05;;;1.08;;
68886;SDS011;55925;51.764;6.402;2023-03-14T05:25:06;7.63;;;1.10;;
68886;SDS011;55925;51.764;6.402;2023-03-14T05:27:32;6.05;;;1.30;;
68886;SDS011;55925;51.764;6.402;2023-03-14T05:29:58;4.43;;;1.17;;
68886;SDS011;55925;51.764;6.402;2023-03-14T05:32:24;4.07;;;0.80;;
68886;SDS011;55925;51.764;6.402;2023-03-14T05:34:50;5.50;;;1.20;;
68886;SDS011;55925;51.764;6.402;2023-03-14T05:37:16;3.67;;;0.95;;
68886;SDS011;55925;51.764;6.402;2023-03-14T05:39:42;4.43;;;0.90;;
68886;SDS011;55925;51.764;6.402;2023-03-14T05:42:08;2.53;;;0.80;;
68886;SDS011;55925;51.764;6.402;2023-03-14T05:44:34;3.53;;;1.00;;
68886;SDS011;55925;51.764;6.402;2023-03-14T05:47:00;3.92;;;1.10;;
68886;SDS011;55925;51.764;6.402;2023-03-14T05:49:26;4.90;;;1.10;;
68886;SDS011;55925;51.764;6.402;2023-03-14T05:51:52;4.78;;;1.10;;
68886;SDS011;55925;51.764;6.402;2023-03-14T05:54:18;3.65;;;1.38;;
68886;SDS011;55925;51.764;6.402;2023-03-14T05:56:44;4.60;;;1.45;;
68886;SDS011;55925;51.764;6.402;2023-03-14T05:59:10;4.97;;;2.33;;
68886;SDS011;55925;51.764;6.402;2023-03-14T06:01:37;5.20;;;1.50;;
68886;SDS011;55925;51.764;6.402;2023-03-14T06:04:03;4.40;;;1.17;;
68886;SDS011;55925;51.764;6.402;2023-03-14T06:06:29;4.13;;;1.58;;
68886;SDS011;55925;51.764;6.402;2023-03-14T06:08:55;3.95;;;1.33;;
68886;SDS011;55925;51.764;6.402;2023-03-14T06:11:21;5.28;;;1.45;;
68886;SDS011;55925;51.764;6.402;2023-03-14T06:13:47;4.32;;;1.35;;
68886;SDS011;55925;51.764;6.402;2023-03-14T06:16:13;5.93;;;1.95;;
68886;SDS011;55925;51.764;6.402;2023-03-14T06:18:39;7.38;;;2.13;;
68886;SDS011;55925;51.764;6.402;2023-03-14T06:21:05;7.25;;;2.13;;
68886;SDS011;55925;51.764;6.402;2023-03-14T06:23:31;5.93;;;2.05;;
68886;SDS011;55925;51.764;6.402;2023-03-14T06:25:57;5.60;;;2.05;;
68886;SDS011;55925;51.764;6.402;2023-03-14T06:28:24;5.28;;;2.20;;
68886;SDS011;55925;51.764;6.402;2023-03-14T06:30:50;7.53;;;2.22;;
68886;SDS011;55925;51.764;6.402;2023-03-14T06:33:16;6.75;;;2.55;;
68886;SDS011;55925;51.764;6.402;2023-03-14T06:35:42;6.95;;;2.05;;
68886;SDS011;55925;51.764;6.402;2023-03-14T06:38:08;5.53;;;2.15;;
68886;SDS011;55925;51.764;6.402;2023-03-14T06:40:34;4.78;;;1.90;;
68886;SDS011;55925;51.764;6.402;2023-03-14T06:43:00;5.70;;;2.03;;
68886;SDS011;55925;51.764;6.402;2023-03-14T06:45:26;9.00;;;2.40;;
68886;SDS011;55925;51.764;6.402;2023-03-14T06:47:52;7.65;;;2.15;;
68886;SDS011;55925;51.764;6.402;2023-03-14T06:50:18;7.25;;;2.60;;
68886;SDS011;55925;51.764;6.402;2023-03-14T06:52:44;7.05;;;2.67;;
68886;SDS011;55925;51.764;6.402;2023-03-14T06:55:13;7.90;;;3.17;;
68886;SDS011;55925;51.764;6.402;2023-03-14T06:57:39;5.90;;;2.13;;
68886;SDS011;55925;51.764;6.402;2023-03-14T07:00:05;7.95;;;2.65;;
68886;SDS011;55925;51.764;6.402;2023-03-14T07:02:31;7.22;;;2.97;;
68886;SDS011;55925;51.764;6.402;2023-03-14T07:04:57;5.30;;;2.58;;
68886;SDS011;55925;51.764;6.402;2023-03-14T07:07:24;6.72;;;2.30;;
68886;SDS011;55925;51.764;6.402;2023-03-14T07:09:50;6.60;;;2.20;;
68886;SDS011;55925;51.764;6.402;2023-03-14T07:12:15;9.40;;;2.50;;
68886;SDS011;55925;51.764;6.402;2023-03-14T07:14:41;8.57;;;3.10;;
68886;SDS011;55925;51.764;6.402;2023-03-14T07:17:07;6.82;;;2.80;;
68886;SDS011;55925;51.764;6.402;2023-03-14T07:19:33;6.88;;;2.80;;
68886;SDS011;55925;51.764;6.402;2023-03-14T07:21:59;7.35;;;2.50;;
68886;SDS011;55925;51.764;6.402;2023-03-14T07:24:26;6.43;;;2.47;;
68886;SDS011;55925;51.764;6.402;2023-03-14T07:26:52;8.25;;;3.10;;
68886;SDS011;55925;51.764;6.402;2023-03-14T07:29:18;5.95;;;2.67;;
68886;SDS011;55925;51.764;6.402;2023-03-14T07:31:44;8.07;;;2.65;;
68886;SDS011;55925;51.764;6.402;2023-03-14T07:34:10;6.80;;;2.30;;
68886;SDS011;55925;51.764;6.402;2023-03-14T07:36:36;6.93;;;2.85;;
68886;SDS011;55925;51.764;6.402;2023-03-14T07:39:02;7.72;;;2.40;;
68886;SDS011;55925;51.764;6.402;2023-03-14T07:41:29;6.75;;;2.63;;
68886;SDS011;55925;51.764;6.402;2023-03-14T07:43:56;6.28;;;2.67;;
68886;SDS011;55925;51.764;6.402;2023-03-14T07:46:22;8.18;;;2.60;;
68886;SDS011;55925;51.764;6.402;2023-03-14T07:48:48;5.28;;;2.22;;
68886;SDS011;55925;51.764;6.402;2023-03-14T07:51:14;8.38;;;2.72;;
68886;SDS011;55925;51.764;6.402;2023-03-14T07:53:40;6.85;;;2.78;;
68886;SDS011;55925;51.764;6.402;2023-03-14T07:56:08;5.97;;;2.75;;
68886;SDS011;55925;51.764;6.402;2023-03-14T07:58:34;8.25;;;2.60;;
68886;SDS011;55925;51.764;6.402;2023-03-14T08:01:00;7.40;;;2.40;;
68886;SDS011;55925;51.764;6.402;2023-03-14T08:03:26;8.23;;;2.85;;
68886;SDS011;55925;51.764;6.402;2023-03-14T08:05:53;5.97;;;2.78;;
68886;SDS011;55925;51.764;6.402;2023-03-14T08:08:19;5.00;;;2.30;;
68886;SDS011;55925;51.764;6.402;2023-03-14T08:10:45;8.50;;;2.65;;
68886;SDS011;55925;51.764;6.402;2023-03-14T08:13:11;6.28;;;2.38;;
68886;SDS011;55925;51.764;6.402;2023-03-14T08:15:37;6.63;;;2.88;;
68886;SDS011;55925;51.764;6.402;2023-03-14T08:18:04;6.43;;;2.55;;
68886;SDS011;55925;51.764;6.402;2023-03-14T08:23:56;4.53;;;1.30;;
68886;SDS011;55925;51.764;6.402;2023-03-14T08:26:43;2.40;;;0.88;;
68886;SDS011;55925;51.764;6.402;2023-03-14T08:29:40;2.63;;;0.90;;
68886;SDS011;55925;51.764;6.402;2023-03-14T08:32:09;4.47;;;1.00;;
68886;SDS011;55925;51.764;6.402;2023-03-14T08:34:35;5.22;;;1.15;;
68886;SDS011;55925;51.764;6.402;2023-03-14T08:37:02;2.58;;;0.90;;
68886;SDS011;55925;51.764;6.402;2023-03-14T08:39:28;4.43;;;0.95;;
68886;SDS011;55925;51.764;6.402;2023-03-14T08:41:54;5.78;;;1.13;;
68886;SDS011;55925;51.764;6.402;2023-03-14T08:44:20;3.97;;;1.60;;
68886;SDS011;55925;51.764;6.402;2023-03-14T08:46:46;3.03;;;1.00;;
68886;SDS011;55925;51.764;6.402;2023-03-14T08:49:12;3.85;;;0.90;;
68886;SDS011;55925;51.764;6.402;2023-03-14T08:51:39;2.85;;;0.98;;
68886;SDS011;55925;51.764;6.402;2023-03-14T08:54:05;4.22;;;1.75;;
68886;SDS011;55925;51.764;6.402;2023-03-14T08:56:31;4.45;;;1.23;;
68886;SDS011;55925;51.764;6.402;2023-03-14T08:58:57;4.75;;;1.30;;
68886;SDS011;55925;51.764;6.402;2023-03-14T09:01:23;3.08;;;1.25;;
68886;SDS011;55925;51.764;6.402;2023-03-14T09:03:50;5.07;;;1.13;;
68886;SDS011;55925;51.764;6.402;2023-03-14T09:06:16;2.97;;;1.27;;
68886;SDS011;55925;51.764;6.402;2023-03-14T09:08:43;3.38;;;0.90;;
68886;SDS011;55925;51.764;6.402;2023-03-14T09:11:09;2.90;;;0.93;;
68886;SDS011;55925;51.764;6.402;2023-03-14T09:13:35;3.17;;;1.05;;
68886;SDS011;55925;51.764;6.402;2023-03-14T09:16:02;4.47;;;1.23;;
68886;SDS011;55925;51.764;6.402;2023-03-14T09:18:28;4.38;;;1.25;;
68886;SDS011;55925;51.764;6.402;2023-03-14T09:20:54;3.13;;;1.08;;
68886;SDS011;55925;51.764;6.402;2023-03-14T09:23:21;2.17;;;1.00;;
68886;SDS011;55925;51.764;6.402;2023-03-14T09:25:47;2.10;;;1.00;;
68886;SDS011;55925;51.764;6.402;2023-03-14T09:28:13;4.18;;;1.50;;
68886;SDS011;55925;51.764;6.402;2023-03-14T09:30:39;3.55;;;1.10;;
68886;SDS011;55925;51.764;6.402;2023-03-14T09:33:05;4.03;;;1.23;;
68886;SDS011;55925;51.764;6.402;2023-03-14T09:35:32;2.25;;;0.75;;
68886;SDS011;55925;51.764;6.402;2023-03-14T09:37:58;3.72;;;1.13;;
68886;SDS011;55925;51.764;6.402;2023-03-14T09:40:24;4.88;;;1.50;;
68886;SDS011;55925;51.764;6.402;2023-03-14T09:42:56;5.15;;;1.52;;
68886;SDS011;55925;51.764;6.402;2023-03-14T09:45:41;2.25;;;0.88;;
68886;SDS011;55925;51.764;6.402;2023-03-14T09:48:12;5.30;;;1.15;;
68886;SDS011;55925;51.764;6.402;2023-03-14T09:50:42;3.65;;;1.10;;
68886;SDS011;55925;51.764;6.402;2023-03-14T09:53:16;4.57;;;1.60;;
68886;SDS011;55925;51.764;6.402;2023-03-14T09:55:43;4.45;;;1.40;;
68886;SDS011;55925;51.764;6.402;2023-03-14T09:58:15;4.20;;;1.50;;
68886;SDS011;55925;51.764;6.402;2023-03-14T10:00:41;4.57;;;1.13;;
68886;SDS011;55925;51.764;6.402;2023-03-14T10:05:40;6.53;;;1.90;;
68886;SDS011;55925;51.764;6.402;2023-03-14T10:08:09;5.10;;;1.42;;
68886;SDS011;55925;51.764;6.402;2023-03-14T10:10:35;6.00;;;1.10;;
68886;SDS011;55925;51.764;6.402;2023-03-14T10:13:10;3.53;;;1.27;;
68886;SDS011;55925;51.764;6.402;2023-03-14T10:15:39;3.05;;;0.88;;
68886;SDS011;55925;51.764;6.402;2023-03-14T10:18:09;3.08;;;1.25;;
68886;SDS011;55925;51.764;6.402;2023-03-14T10:20:38;3.20;;;1.10;;
68886;SDS011;55925;51.764;6.402;2023-03-14T10:23:16;3.45;;;1.00;;
68886;SDS011;55925;51.764;6.402;2023-03-14T10:25:45;3.45;;;0.93;;
68886;SDS011;55925;51.764;6.402;2023-03-14T10:28:31;4.70;;;1.33;;
68886;SDS011;55925;51.764;6.402;2023-03-14T10:30:58;6.05;;;1.70;;
68886;SDS011;55925;51.764;6.402;2023-03-14T10:33:26;10.05;;;3.10;;
68886;SDS011;55925;51.764;6.402;2023-03-14T10:38:45;6.63;;;1.70;;
68886;SDS011;55925;51.764;6.402;2023-03-14T10:41:19;3.88;;;1.30;;
68886;SDS011;55925;51.764;6.402;2023-03-14T10:43:45;5.72;;;1.83;;
68886;SDS011;55925;51.764;6.402;2023-03-14T10:46:15;3.63;;;1.10;;
68886;SDS011;55925;51.764;6.402;2023-03-14T10:48:42;3.97;;;1.23;;
68886;SDS011;55925;51.764;6.402;2023-03-14T10:53:41;3.78;;;1.20;;
68886;SDS011;55925;51.764;6.402;2023-03-14T10:56:11;4.63;;;1.15;;
68886;SDS011;55925;51.764;6.402;2023-03-14T10:58:47;6.05;;;1.27;;
68886;SDS011;55925;51.764;6.402;2023-03-14T11:03:52;3.63;;;1.33;;
68886;SDS011;55925;51.764;6.402;2023-03-14T11:11:19;7.60;;;1.90;;
68886;SDS011;55925;51.764;6.402;2023-03-14T11:16:50;4.80;;;1.50;;
68886;SDS011;55925;51.764;6.402;2023-03-14T11:19:19;8.52;;;1.33;;
68886;SDS011;55925;51.764;6.402;2023-03-14T11:31:48;8.75;;;1.85;;
68886;SDS011;55925;51.764;6.402;2023-03-14T11:34:21;6.72;;;1.33;;
68886;SDS011;55925;51.764;6.402;2023-03-14T11:36:53;11.00;;;1.80;;
68886;SDS011;55925;51.764;6.402;2023-03-14T11:41:49;8.73;;;1.63;;
68886;SDS011;55925;51.764;6.402;2023-03-14T11:44:20;10.43;;;1.55;;
68886;SDS011;55925;51.764;6.402;2023-03-14T11:46:50;6.53;;;1.50;;
68886;SDS011;55925;51.764;6.402;2023-03-14T11:49:27;9.10;;;1.90;;
68886;SDS011;55925;51.764;6.402;2023-03-14T11:52:02;10.90;;;2.67;;
68886;SDS011;55925;51.764;6.402;2023-03-14T11:56:58;22.45;;;2.47;;
68886;SDS011;55925;51.764;6.402;2023-03-14T12:02:16;9.15;;;2.05;;
68886;SDS011;55925;51.764;6.402;2023-03-14T12:04:51;11.18;;;1.77;;
68886;SDS011;55925;51.764;6.402;2023-03-14T12:07:20;13.43;;;2.72;;
68886;SDS011;55925;51.764;6.402;2023-03-14T12:09:48;11.75;;;1.77;;
68886;SDS011;55925;51.764;6.402;2023-03-14T12:12:19;6.32;;;1.88;;
68886;SDS011;55925;51.764;6.402;2023-03-14T12:14:55;10.02;;;2.08;;
68886;SDS011;55925;51.764;6.402;2023-03-14T12:17:23;14.23;;;2.10;;
68886;SDS011;55925;51.764;6.402;2023-03-14T12:20:32;10.70;;;2.33;;
68886;SDS011;55925;51.764;6.402;2023-03-14T12:22:49;7.20;;;2.00;;
68886;SDS011;55925;51.764;6.402;2023-03-14T12:25:18;8.85;;;2.03;;
68886;SDS011;55925;51.764;6.402;2023-03-14T12:30:56;11.27;;;1.88;;
68886;SDS011;55925;51.764;6.402;2023-03-14T12:38:04;13.13;;;2.35;;
68886;SDS011;55925;51.764;6.402;2023-03-14T12:40:33;12.05;;;2.55;;
68886;SDS011;55925;51.764;6.402;2023-03-14T12:43:01;15.15;;;2.63;;
68886;SDS011;55925;51.764;6.402;2023-03-14T12:45:29;7.32;;;1.58;;
68886;SDS011;55925;51.764;6.402;2023-03-14T12:50:26;14.10;;;2.17;;
68886;SDS011;55925;51.764;6.402;2023-03-14T12:55:20;12.55;;;2.30;;
68886;SDS011;55925;51.764;6.402;2023-03-14T12:57:53;15.65;;;2.15;;
68886;SDS011;55925;51.764;6.402;2023-03-14T13:00:32;13.82;;;2.33;;
68886;SDS011;55925;51.764;6.402;2023-03-14T13:03:03;11.73;;;2.38;;
68886;SDS011;55925;51.764;6.402;2023-03-14T13:05:40;10.23;;;2.40;;
68886;SDS011;55925;51.764;6.402;2023-03-14T13:08:19;10.10;;;2.42;;
68886;SDS011;55925;51.764;6.402;2023-03-14T13:10:57;4.40;;;1.20;;
68886;SDS011;55925;51.764;6.402;2023-03-14T13:13:24;6.03;;;1.80;;
68886;SDS011;55925;51.764;6.402;2023-03-14T13:15:57;6.70;;;1.75;;
68886;SDS011;55925;51.764;6.402;2023-03-14T13:18:30;8.40;;;1.48;;
68886;SDS011;55925;51.764;6.402;2023-03-14T13:21:03;6.50;;;1.17;;
68886;SDS011;55925;51.764;6.402;2023-03-14T13:23:32;7.28;;;2.03;;
68886;SDS011;55925;51.764;6.402;2023-03-14T13:25:59;7.32;;;2.00;;
68886;SDS011;55925;51.764;6.402;2023-03-14T13:28:25;9.30;;;1.67;;
68886;SDS011;55925;51.764;6.402;2023-03-14T13:30:56;3.28;;;0.98;;
68886;SDS011;55925;51.764;6.402;2023-03-14T13:33:23;5.80;;;1.23;;
68886;SDS011;55925;51.764;6.402;2023-03-14T13:35:53;6.35;;;1.33;;
68886;SDS011;55925;51.764;6.402;2023-03-14T13:38:23;7.72;;;1.80;;
68886;SDS011;55925;51.764;6.402;2023-03-14T13:40:51;6.07;;;1.67;;
68886;SDS011;55925;51.764;6.402;2023-03-14T13:43:18;5.72;;;2.03;;
68886;SDS011;55925;51.764;6.402;2023-03-14T13:45:48;5.38;;;1.50;;
68886;SDS011;55925;51.764;6.402;2023-03-14T13:48:14;10.45;;;1.98;;
68886;SDS011;55925;51.764;6.402;2023-03-14T13:50:46;7.30;;;2.13;;
68886;SDS011;55925;51.764;6.402;2023-03-14T13:53:14;10.90;;;2.30;;
68886;SDS011;55925;51.764;6.402;2023-03-14T13:55:40;6.63;;;1.48;;
68886;SDS011;55925;51.764;6.402;2023-03-14T13:58:18;7.00;;;1.75;;
68886;SDS011;55925;51.764;6.402;2023-03-14T14:00:52;6.85;;;2.10;;
68886;SDS011;55925;51.764;6.402;2023-03-14T14:03:19;6.38;;;2.20;;
68886;SDS011;55925;51.764;6.402;2023-03-14T14:05:45;6.38;;;2.00;;
68886;SDS011;55925;51.764;6.402;2023-03-14T14:08:12;6.05;;;1.80;;
68886;SDS011;55925;51.764;6.402;2023-03-14T14:10:38;7.80;;;1.73;;
68886;SDS011;55925;51.764;6.402;2023-03-14T14:13:04;5.65;;;1.42;;
68886;SDS011;55925;51.764;6.402;2023-03-14T14:15:32;5.63;;;1.40;;
68886;SDS011;55925;51.764;6.402;2023-03-14T14:18:01;5.93;;;1.45;;
68886;SDS011;55925;51.764;6.402;2023-03-14T14:20:41;5.32;;;1.90;;
68886;SDS011;55925;51.764;6.402;2023-03-14T14:23:11;7.43;;;1.35;;
68886;SDS011;55925;51.764;6.402;2023-03-14T14:25:38;12.02;;;1.70;;
68886;SDS011;55925;51.764;6.402;2023-03-14T14:30:45;9.05;;;1.17;;
68886;SDS011;55925;51.764;6.402;2023-03-14T14:33:16;5.50;;;1.38;;
68886;SDS011;55925;51.764;6.402;2023-03-14T14:35:48;5.80;;;1.40;;
68886;SDS011;55925;51.764;6.402;2023-03-14T14:38:16;5.30;;;1.40;;
68886;SDS011;55925;51.764;6.402;2023-03-14T14:40:46;7.47;;;2.00;;
68886;SDS011;55925;51.764;6.402;2023-03-14T14:43:17;4.95;;;1.40;;
68886;SDS011;55925;51.764;6.402;2023-03-14T14:45:44;3.13;;;1.00;;
68886;SDS011;55925;51.764;6.402;2023-03-14T14:48:21;5.35;;;1.48;;
68886;SDS011;55925;51.764;6.402;2023-03-14T14:53:21;6.20;;;1.10;;
68886;SDS011;55925;51.764;6.402;2023-03-14T14:55:50;4.18;;;1.00;;
68886;SDS011;55925;51.764;6.402;2023-03-14T14:58:27;4.07;;;1.40;;
68886;SDS011;55925;51.764;6.402;2023-03-14T15:00:59;4.65;;;1.10;;
68886;SDS011;55925;51.764;6.402;2023-03-14T15:03:28;7.13;;;1.38;;
68886;SDS011;55925;51.764;6.402;2023-03-14T15:05:55;5.22;;;1.20;;
68886;SDS011;55925;51.764;6.402;2023-03-14T15:08:21;5.20;;;1.30;;
68886;SDS011;55925;51.764;6.402;2023-03-14T15:10:47;6.90;;;1.85;;
68886;SDS011;55925;51.764;6.402;2023-03-14T15:13:13;6.30;;;2.08;;
68886;SDS011;55925;51.764;6.402;2023-03-14T15:15:40;5.72;;;1.50;;
68886;SDS011;55925;51.764;6.402;2023-03-14T15:18:13;9.23;;;2.58;;
68886;SDS011;55925;51.764;6.402;2023-03-14T15:20:40;7.82;;;1.85;;
68886;SDS011;55925;51.764;6.402;2023-03-14T15:23:09;11.20;;;3.05;;
68886;SDS011;55925;51.764;6.402;2023-03-14T15:25:36;7.60;;;2.40;;
68886;SDS011;55925;51.764;6.402;2023-03-14T15:28:05;13.35;;;2.97;;
68886;SDS011;55925;51.764;6.402;2023-03-14T15:30:31;14.32;;;3.70;;
68886;SDS011;55925;51.764;6.402;2023-03-14T15:32:57;7.13;;;2.22;;
68886;SDS011;55925;51.764;6.402;2023-03-14T15:35:23;8.20;;;1.88;;
68886;SDS011;55925;51.764;6.402;2023-03-14T15:37:49;6.70;;;2.03;;
68886;SDS011;55925;51.764;6.402;2023-03-14T15:40:15;6.97;;;1.98;;
68886;SDS011;55925;51.764;6.402;2023-03-14T15:42:41;4.30;;;1.23;;
68886;SDS011;55925;51.764;6.402;2023-03-14T15:45:07;6.28;;;1.70;;
68886;SDS011;55925;51.764;6.402;2023-03-14T15:47:34;7.70;;;1.50;;
68886;SDS011;55925;51.764;6.402;2023-03-14T15:50:00;7.00;;;1.90;;
68886;SDS011;55925;51.764;6.402;2023-03-14T15:52:26;6.38;;;1.42;;
68886;SDS011;55925;51.764;6.402;2023-03-14T15:54:52;8.75;;;1.65;;
68886;SDS011;55925;51.764;6.402;2023-03-14T15:57:18;5.32;;;1.20;;
68886;SDS011;55925;51.764;6.402;2023-03-14T15:59:44;6.25;;;1.88;;